createdAt,value
2022-11-02T00:02:15.371Z,2.03
2022-11-02T00:04:46.143Z,2.47
2022-11-02T00:07:17.122Z,2.20
2022-11-02T00:09:51.886Z,2.60
2022-11-02T00:12:22.653Z,2.30
2022-11-02T00:14:53.426Z,2.00
2022-11-02T00:17:24.338Z,2.07
2022-11-02T00:19:55.183Z,1.90
2022-11-02T00:22:26.443Z,1.83
2022-11-02T00:24:59.966Z,2.40
2022-11-02T00:27:34.105Z,2.10
2022-11-02T00:30:05.667Z,1.83
2022-11-02T00:32:38.276Z,1.87
2022-11-02T00:35:12.870Z,2.40
2022-11-02T00:37:43.615Z,2.37
2022-11-02T00:40:17.227Z,1.80
2022-11-02T00:42:51.216Z,2.07
2022-11-02T00:45:22.612Z,1.77
2022-11-02T00:47:56.360Z,2.00
2022-11-02T00:50:28.412Z,1.93
2022-11-02T00:52:59.561Z,1.83
2022-11-02T00:55:35.785Z,1.90
2022-11-02T00:58:06.967Z,1.80
2022-11-02T01:00:37.901Z,2.17
2022-11-02T01:03:08.713Z,2.37
2022-11-02T01:05:40.149Z,2.10
2022-11-02T01:08:10.927Z,2.00
2022-11-02T01:10:47.344Z,1.70
2022-11-02T01:13:19.450Z,2.10
2022-11-02T01:15:50.514Z,2.10
2022-11-02T01:18:21.260Z,2.80
2022-11-02T01:20:59.097Z,2.00
2022-11-02T01:23:32.401Z,2.10
2022-11-02T01:26:10.317Z,2.43
2022-11-02T01:28:42.164Z,2.10
2022-11-02T01:31:15.489Z,2.00
2022-11-02T01:33:47.770Z,2.20
2022-11-02T01:39:12.091Z,2.10
2022-11-02T01:41:45.969Z,2.00
2022-11-02T01:44:36.291Z,2.23
2022-11-02T01:47:10.942Z,2.00
2022-11-02T01:49:44.586Z,2.03
2022-11-02T01:52:20.879Z,2.10
2022-11-02T01:54:56.934Z,2.27
2022-11-02T01:57:31.463Z,1.87
2022-11-02T02:00:06.984Z,1.93
2022-11-02T02:02:41.546Z,1.77
2022-11-02T02:05:15.650Z,1.73
2022-11-02T02:07:47.796Z,2.23
2022-11-02T02:10:19.231Z,2.47
2022-11-02T02:12:52.909Z,1.90
2022-11-02T02:15:27.924Z,2.10
2022-11-02T02:18:08.171Z,2.33
2022-11-02T02:20:54.136Z,2.53
2022-11-02T02:24:07.021Z,2.17
2022-11-02T02:27:10.700Z,1.97
2022-11-02T02:29:55.801Z,2.10
2022-11-02T02:32:33.408Z,2.50
2022-11-02T02:35:14.988Z,1.77
2022-11-02T02:37:54.175Z,1.90
2022-11-02T02:40:32.383Z,1.87
2022-11-02T02:43:09.322Z,2.10
2022-11-02T02:45:47.362Z,2.20
2022-11-02T02:48:22.476Z,1.70
2022-11-02T02:50:56.234Z,2.00
2022-11-02T02:53:31.659Z,2.17
2022-11-02T02:56:05.463Z,2.03
2022-11-02T02:58:40.934Z,1.90
2022-11-02T03:01:16.216Z,2.40
2022-11-02T03:03:47.888Z,1.70
2022-11-02T03:06:26.068Z,2.20
2022-11-02T03:09:06.650Z,2.07
2022-11-02T03:11:49.881Z,2.03
2022-11-02T03:14:40.270Z,2.30
2022-11-02T03:17:19.134Z,2.30
2022-11-02T03:19:58.019Z,1.90
2022-11-02T03:22:36.469Z,1.80
2022-11-02T03:25:14.531Z,2.00
2022-11-02T03:27:55.656Z,2.43
2022-11-02T03:30:29.999Z,1.80
2022-11-02T03:33:08.974Z,2.40
2022-11-02T03:35:45.578Z,2.23
2022-11-02T03:38:20.887Z,1.87
2022-11-02T03:40:54.732Z,2.00
2022-11-02T03:43:26.825Z,2.33
2022-11-02T03:46:01.413Z,2.17
2022-11-02T03:48:40.210Z,2.70
2022-11-02T03:51:14.422Z,2.70
2022-11-02T03:53:51.642Z,2.47
2022-11-02T03:56:28.070Z,2.60
2022-11-02T03:58:59.669Z,2.90
2022-11-02T04:01:33.343Z,2.70
2022-11-02T04:04:11.509Z,2.23
2022-11-02T04:06:43.212Z,2.87
2022-11-02T04:09:14.963Z,2.30
2022-11-02T04:11:58.171Z,2.50
2022-11-02T04:14:41.480Z,2.13
2022-11-02T04:17:26.370Z,2.30
2022-11-02T04:20:02.010Z,2.07
2022-11-02T04:22:45.506Z,2.50
2022-11-02T04:25:23.880Z,2.40
2022-11-02T04:27:56.767Z,2.50
2022-11-02T04:30:30.453Z,2.43
2022-11-02T04:33:15.762Z,4.40
2022-11-02T04:35:49.135Z,3.60
2022-11-02T04:38:33.940Z,2.77
2022-11-02T04:41:17.201Z,2.93
2022-11-02T04:43:49.273Z,2.50
2022-11-02T04:46:21.347Z,2.70
2022-11-02T04:48:52.330Z,2.10
2022-11-02T04:51:27.624Z,2.10
2022-11-02T04:54:02.588Z,2.60
2022-11-02T04:56:33.495Z,2.70
2022-11-02T04:59:04.654Z,2.30
2022-11-02T05:01:38.537Z,2.00
2022-11-02T05:04:09.394Z,1.90
2022-11-02T05:06:42.937Z,2.20
2022-11-02T05:09:16.582Z,2.23
2022-11-02T05:11:47.307Z,1.80
2022-11-02T05:14:18.009Z,1.83
2022-11-02T05:16:48.722Z,1.50
2022-11-02T05:19:19.476Z,1.63
2022-11-02T05:21:54.751Z,2.23
2022-11-02T05:24:25.517Z,1.90
2022-11-02T05:26:56.290Z,2.10
2022-11-02T05:29:27.226Z,1.60
2022-11-02T05:31:59.679Z,1.80
2022-11-02T05:34:30.542Z,1.60
2022-11-02T05:37:04.215Z,2.03
2022-11-02T05:39:35.554Z,1.93
2022-11-02T05:42:06.656Z,2.60
2022-11-02T05:44:37.627Z,1.70
2022-11-02T05:47:09.657Z,1.73
2022-11-02T05:49:40.451Z,1.67
2022-11-02T05:52:13.979Z,2.10
2022-11-02T05:54:45.253Z,2.30
2022-11-02T05:57:19.118Z,2.10
2022-11-02T05:59:49.842Z,1.70
2022-11-02T06:02:23.355Z,2.90
2022-11-02T06:04:56.358Z,1.80
2022-11-02T06:07:31.336Z,2.80
2022-11-02T06:10:02.672Z,2.00
2022-11-02T06:12:35.649Z,2.43
2022-11-02T06:15:09.647Z,2.20
2022-11-02T06:17:41.219Z,2.63
2022-11-02T06:20:13.126Z,2.27
2022-11-02T06:22:46.917Z,1.97
2022-11-02T06:25:19.824Z,1.77
2022-11-02T06:27:56.631Z,1.90
2022-11-02T06:30:28.528Z,2.10
2022-11-02T06:33:03.019Z,2.33
2022-11-02T06:35:37.888Z,2.07
2022-11-02T06:38:11.218Z,2.10
2022-11-02T06:40:42.158Z,2.20
2022-11-02T06:43:17.740Z,2.17
2022-11-02T06:45:49.197Z,2.67
2022-11-02T06:48:21.050Z,1.83
2022-11-02T06:50:53.221Z,2.63
2022-11-02T06:53:26.628Z,2.00
2022-11-02T06:55:58.481Z,1.97
2022-11-02T06:58:29.912Z,2.10
2022-11-02T07:01:02.557Z,1.67
2022-11-02T07:03:34.043Z,2.30
2022-11-02T07:06:09.681Z,2.47
2022-11-02T07:08:46.219Z,2.13
2022-11-02T07:11:17.984Z,2.10
2022-11-02T07:13:49.058Z,2.30
2022-11-02T07:16:20.236Z,1.87
2022-11-02T07:18:51.002Z,1.87
2022-11-02T07:21:21.716Z,2.37
2022-11-02T07:23:55.333Z,1.60
2022-11-02T07:26:30.053Z,1.97
2022-11-02T07:29:01.098Z,2.10
2022-11-02T07:31:32.601Z,2.07
2022-11-02T07:34:06.522Z,1.60
2022-11-02T07:36:37.402Z,1.80
2022-11-02T07:39:11.394Z,2.10
2022-11-02T07:41:42.306Z,2.03
2022-11-02T07:44:13.119Z,2.40
2022-11-02T07:46:43.858Z,1.67
2022-11-02T07:49:20.212Z,1.87
2022-11-02T07:51:52.803Z,1.90
2022-11-02T07:54:29.438Z,2.17
2022-11-02T07:57:00.193Z,2.13
2022-11-02T07:59:30.968Z,2.50
2022-11-02T08:02:01.656Z,1.83
2022-11-02T08:04:32.567Z,2.00
2022-11-02T08:07:03.328Z,2.13
2022-11-02T08:09:36.801Z,2.30
2022-11-02T08:12:08.134Z,2.03
2022-11-02T08:14:38.842Z,2.17
2022-11-02T08:17:09.806Z,1.83
2022-11-02T08:19:41.265Z,2.03
2022-11-02T08:22:12.040Z,1.90
2022-11-02T08:24:47.895Z,2.33
2022-11-02T08:27:18.674Z,1.80
2022-11-02T08:29:49.667Z,1.80
2022-11-02T08:32:20.367Z,2.00
2022-11-02T08:34:52.114Z,1.50
2022-11-02T08:37:22.898Z,2.30
2022-11-02T08:39:56.326Z,2.50
2022-11-02T08:42:27.252Z,2.43
2022-11-02T08:44:58.018Z,1.67
2022-11-02T08:47:31.170Z,2.23
2022-11-02T08:50:02.646Z,1.57
2022-11-02T08:52:40.660Z,2.40
2022-11-02T08:55:14.517Z,2.60
2022-11-02T08:57:48.664Z,1.63
2022-11-02T09:00:21.542Z,1.70
2022-11-02T09:03:06.521Z,2.20
2022-11-02T09:05:39.428Z,2.40
2022-11-02T09:08:13.858Z,2.37
2022-11-02T09:10:50.258Z,2.30
2022-11-02T09:13:25.597Z,2.20
2022-11-02T09:15:58.344Z,1.90
2022-11-02T09:18:34.734Z,2.17
2022-11-02T09:21:06.836Z,1.97
2022-11-02T09:23:37.662Z,2.13
2022-11-02T09:26:11.093Z,2.20
2022-11-02T09:28:41.868Z,2.00
2022-11-02T09:31:15.925Z,2.10
2022-11-02T09:33:46.679Z,2.30
2022-11-02T09:36:17.434Z,2.23
2022-11-02T09:38:48.639Z,2.63
2022-11-02T09:41:30.522Z,2.40
2022-11-02T09:44:07.037Z,1.77
2022-11-02T09:46:41.271Z,2.63
2022-11-02T09:49:16.683Z,2.17
2022-11-02T09:51:51.566Z,2.57
2022-11-02T09:54:28.916Z,2.20
2022-11-02T09:57:09.299Z,2.20
2022-11-02T09:59:40.333Z,2.23
2022-11-02T10:02:25.263Z,1.87
2022-11-02T10:05:11.653Z,1.87
2022-11-02T10:08:06.633Z,2.37
2022-11-02T10:10:41.741Z,2.03
2022-11-02T10:13:28.738Z,1.80
2022-11-02T10:16:03.293Z,1.70
2022-11-02T10:18:34.647Z,1.67
2022-11-02T10:21:10.846Z,1.93
2022-11-02T10:23:47.461Z,2.03
2022-11-02T10:26:22.035Z,2.30
2022-11-02T10:29:02.393Z,2.47
2022-11-02T10:31:35.418Z,2.10
2022-11-02T10:34:23.150Z,1.93
2022-11-02T10:37:07.289Z,1.90
2022-11-02T10:39:50.207Z,2.87
2022-11-02T10:42:48.807Z,1.93
2022-11-02T10:45:44.308Z,2.20
2022-11-02T10:48:29.798Z,1.70
2022-11-02T10:51:10.379Z,1.87
2022-11-02T10:53:44.829Z,2.23
2022-11-02T10:56:20.167Z,2.10
2022-11-02T10:58:57.092Z,2.27
2022-11-02T11:01:31.839Z,1.90
2022-11-02T11:04:04.313Z,2.10
2022-11-02T11:06:39.526Z,1.90
2022-11-02T11:09:19.836Z,2.10
2022-11-02T11:11:57.197Z,1.90
2022-11-02T11:20:35.020Z,1.90
2022-11-02T11:23:22.996Z,1.50
2022-11-02T11:26:01.462Z,1.70
2022-11-02T11:28:34.884Z,2.03
2022-11-02T11:31:10.317Z,1.80
2022-11-02T11:33:50.032Z,1.50
2022-11-02T11:36:27.260Z,1.80
2022-11-02T11:39:01.281Z,2.40
2022-11-02T11:41:35.105Z,2.47
2022-11-02T11:44:17.825Z,1.83
2022-11-02T11:46:51.715Z,1.97
2022-11-02T11:49:47.945Z,1.50
2022-11-02T11:52:31.184Z,1.90
2022-11-02T11:55:05.976Z,1.70
2022-11-02T12:00:31.849Z,1.90
2022-11-02T12:03:10.905Z,1.33
2022-11-02T12:05:55.185Z,1.50
2022-11-02T12:08:36.889Z,1.60
2022-11-02T12:11:28.833Z,1.47
2022-11-02T12:14:10.688Z,2.17
2022-11-02T12:17:00.184Z,1.70
2022-11-02T12:19:45.694Z,1.50
2022-11-02T12:22:24.442Z,1.50
2022-11-02T12:25:12.239Z,1.77
2022-11-02T12:27:52.325Z,2.10
2022-11-02T12:30:24.366Z,2.13
2022-11-02T12:33:24.006Z,1.83
2022-11-02T12:36:06.097Z,1.60
2022-11-02T12:39:09.019Z,1.50
2022-11-02T12:42:06.860Z,1.50
2022-11-02T12:45:01.005Z,1.70
2022-11-02T12:47:45.853Z,1.80
2022-11-02T12:50:31.556Z,1.47
2022-11-02T12:53:18.584Z,2.00
2022-11-02T12:55:55.247Z,2.40
2022-11-02T12:58:28.851Z,1.53
2022-11-02T13:01:09.361Z,2.13
2022-11-02T13:03:50.616Z,1.40
2022-11-02T13:06:27.222Z,1.67
2022-11-02T13:09:01.618Z,1.80
2022-11-02T13:11:40.125Z,2.00
2022-11-02T13:14:21.564Z,1.57
2022-11-02T13:16:58.444Z,2.37
2022-11-02T13:19:39.064Z,1.70
2022-11-02T13:22:13.155Z,1.70
2022-11-02T13:24:48.230Z,1.90
2022-11-02T13:27:36.604Z,1.80
2022-11-02T13:30:15.858Z,1.60
2022-11-02T13:32:50.772Z,1.77
2022-11-02T13:35:26.901Z,1.60
2022-11-02T13:38:04.906Z,1.70
2022-11-02T13:40:43.671Z,1.70
2022-11-02T13:43:46.426Z,1.70
2022-11-02T13:46:32.588Z,1.90
2022-11-02T13:49:06.302Z,1.80
2022-11-02T13:51:43.072Z,1.87
2022-11-02T13:54:21.732Z,1.90
2022-11-02T13:56:56.661Z,1.70
2022-11-02T13:59:34.582Z,1.63
2022-11-02T14:02:10.835Z,1.67
2022-11-02T14:04:44.159Z,1.47
2022-11-02T14:07:28.642Z,2.03
2022-11-02T14:10:02.864Z,2.00
2022-11-02T14:12:48.584Z,2.20
2022-11-02T14:15:58.082Z,2.43
2022-11-02T14:18:31.861Z,1.43
2022-11-02T14:21:50.615Z,1.97
2022-11-02T14:24:53.897Z,1.83
2022-11-02T14:27:33.393Z,1.60
2022-11-02T14:30:04.352Z,2.20
2022-11-02T14:33:02.735Z,1.73
2022-11-02T14:35:44.459Z,1.70
2022-11-02T14:38:49.052Z,2.07
2022-11-02T14:41:45.427Z,2.10
2022-11-02T14:44:45.414Z,2.33
2022-11-02T14:47:19.206Z,1.90
2022-11-02T14:49:57.677Z,2.73
2022-11-02T14:52:31.460Z,2.30
2022-11-02T14:55:05.743Z,2.17
2022-11-02T14:57:41.155Z,2.00
2022-11-02T15:00:22.237Z,1.57
2022-11-02T15:03:06.333Z,2.00
2022-11-02T15:05:41.934Z,1.50
2022-11-02T15:08:25.362Z,2.20
2022-11-02T15:10:58.184Z,2.17
2022-11-02T15:13:48.178Z,2.30
2022-11-02T15:16:27.006Z,2.57
2022-11-02T15:19:17.850Z,2.27
2022-11-02T15:21:55.045Z,2.50
2022-11-02T15:24:31.488Z,2.00
2022-11-02T15:27:03.027Z,3.10
2022-11-02T15:29:43.715Z,2.57
2022-11-02T15:32:22.809Z,2.40
2022-11-02T15:34:56.821Z,3.00
2022-11-02T15:37:50.435Z,3.20
2022-11-02T15:40:32.585Z,2.30
2022-11-02T15:43:16.182Z,2.63
2022-11-02T15:46:03.621Z,2.10
2022-11-02T15:48:46.500Z,2.43
2022-11-02T15:51:23.997Z,2.70
2022-11-02T15:54:23.481Z,2.50
2022-11-02T15:57:08.304Z,2.37
2022-11-02T16:00:05.009Z,2.40
2022-11-02T16:02:39.460Z,2.20
2022-11-02T16:05:20.651Z,2.63
2022-11-02T16:10:50.858Z,2.27
2022-11-02T16:13:23.918Z,2.30
2022-11-02T16:16:12.113Z,2.70
2022-11-02T16:18:44.430Z,2.40
2022-11-02T16:21:18.060Z,2.97
2022-11-02T16:23:51.876Z,2.77
2022-11-02T16:26:28.145Z,1.93
2022-11-02T16:29:03.435Z,2.53
2022-11-02T16:31:42.419Z,3.20
2022-11-02T16:34:24.101Z,2.10
2022-11-02T16:36:58.358Z,2.60
2022-11-02T16:39:34.467Z,2.40
2022-11-02T16:42:15.659Z,2.93
2022-11-02T16:44:56.214Z,5.70
2022-11-02T16:47:39.850Z,7.70
2022-11-02T16:50:24.899Z,7.00
2022-11-02T16:53:01.405Z,6.47
2022-11-02T16:55:38.530Z,6.30
2022-11-02T16:58:19.734Z,5.50
2022-11-02T17:00:58.562Z,4.13
2022-11-02T17:03:36.382Z,4.10
2022-11-02T17:06:09.572Z,4.87
2022-11-02T17:08:44.089Z,4.03
2022-11-02T17:11:20.394Z,2.90
2022-11-02T17:13:57.037Z,3.53
2022-11-02T17:16:27.846Z,5.23
2022-11-02T17:18:58.678Z,4.10
2022-11-02T17:21:34.025Z,3.77
2022-11-02T17:24:36.240Z,4.47
2022-11-02T17:27:28.571Z,3.23
2022-11-02T17:29:59.434Z,2.50
2022-11-02T17:32:31.145Z,2.10
2022-11-02T17:35:06.683Z,2.37
2022-11-02T17:37:37.985Z,2.70
2022-11-02T17:40:14.717Z,2.60
2022-11-02T17:42:58.068Z,2.80
2022-11-02T17:45:31.390Z,2.70
2022-11-02T17:48:04.537Z,2.30
2022-11-02T17:50:40.247Z,2.67
2022-11-02T17:53:17.155Z,2.27
2022-11-02T17:55:51.030Z,2.53
2022-11-02T17:58:21.943Z,2.00
2022-11-02T18:00:54.159Z,2.50
2022-11-02T18:03:31.271Z,2.60
2022-11-02T18:06:02.515Z,2.37
2022-11-02T18:08:53.269Z,1.60
2022-11-02T18:11:26.875Z,2.30
2022-11-02T18:13:57.876Z,2.23
2022-11-02T18:16:28.952Z,2.27
2022-11-02T18:18:59.706Z,3.60
2022-11-02T18:21:32.164Z,2.60
2022-11-02T18:24:03.247Z,2.30
2022-11-02T18:26:37.617Z,2.27
2022-11-02T18:29:10.698Z,2.50
2022-11-02T18:31:43.378Z,2.00
2022-11-02T18:34:17.407Z,1.90
2022-11-02T18:36:49.337Z,2.60
2022-11-02T18:39:20.270Z,2.03
2022-11-02T18:41:53.995Z,2.10
2022-11-02T18:44:25.122Z,2.53
2022-11-02T18:46:57.748Z,2.30
2022-11-02T18:49:28.599Z,2.37
2022-11-02T18:52:05.235Z,2.50
2022-11-02T18:54:36.170Z,2.20
2022-11-02T18:57:09.524Z,2.40
2022-11-02T18:59:40.892Z,1.87
2022-11-02T19:02:14.915Z,3.00
2022-11-02T19:04:46.587Z,2.27
2022-11-02T19:07:29.872Z,2.07
2022-11-02T19:10:03.690Z,2.20
2022-11-02T19:12:38.564Z,1.87
2022-11-02T19:15:12.245Z,2.73
2022-11-02T19:17:45.217Z,2.37
2022-11-02T19:20:16.188Z,2.60
2022-11-02T19:22:50.804Z,2.70
2022-11-02T19:25:25.324Z,2.27
2022-11-02T19:27:58.948Z,2.43
2022-11-02T19:30:29.796Z,2.67
2022-11-02T19:33:01.089Z,2.17
2022-11-02T19:35:31.883Z,2.13
2022-11-02T19:38:02.781Z,2.33
2022-11-02T19:40:37.148Z,2.30
2022-11-02T19:43:10.806Z,2.60
2022-11-02T19:45:41.901Z,2.00
2022-11-02T19:48:12.737Z,2.30
2022-11-02T19:50:43.552Z,2.40
2022-11-02T19:53:16.497Z,2.17
2022-11-02T19:55:55.246Z,1.87
2022-11-02T19:58:29.432Z,2.20
2022-11-02T20:01:00.357Z,1.57
2022-11-02T20:03:31.576Z,1.83
2022-11-02T20:06:02.915Z,2.10
2022-11-02T20:08:34.187Z,2.00
2022-11-02T20:11:05.978Z,2.50
2022-11-02T20:13:41.228Z,2.10
2022-11-02T20:16:14.957Z,2.50
2022-11-02T20:18:49.146Z,2.03
2022-11-02T20:21:23.798Z,2.00
2022-11-02T20:23:57.776Z,2.23
2022-11-02T20:26:31.852Z,1.70
2022-11-02T20:29:08.794Z,2.57
2022-11-02T20:31:44.768Z,2.00
2022-11-02T20:34:16.002Z,2.00
2022-11-02T20:36:47.485Z,3.10
2022-11-02T20:39:18.388Z,2.20
2022-11-02T20:41:54.722Z,2.13
2022-11-02T20:44:28.070Z,2.10
2022-11-02T20:46:58.786Z,2.30
2022-11-02T20:52:26.838Z,2.70
2022-11-02T20:55:00.785Z,2.27
2022-11-02T20:57:31.553Z,2.63
2022-11-02T21:00:05.040Z,2.30
2022-11-02T21:02:35.990Z,2.40
2022-11-02T21:05:08.983Z,2.30
2022-11-02T21:07:39.692Z,2.43
2022-11-02T21:10:12.108Z,2.20
2022-11-02T21:12:55.299Z,2.60
2022-11-02T21:15:29.077Z,2.20
2022-11-02T21:17:59.839Z,2.67
2022-11-02T21:20:34.649Z,2.67
2022-11-02T21:23:09.534Z,2.40
2022-11-02T21:25:40.812Z,2.40
2022-11-02T21:28:13.483Z,2.10
2022-11-02T21:30:49.295Z,2.30
2022-11-02T21:33:20.337Z,2.20
2022-11-02T21:35:51.083Z,2.00
2022-11-02T21:38:21.975Z,2.33
2022-11-02T21:40:55.094Z,2.27
2022-11-02T21:43:25.807Z,2.63
2022-11-02T21:46:01.826Z,1.90
2022-11-02T21:48:34.508Z,2.00
2022-11-02T21:51:07.259Z,1.97
2022-11-02T21:53:40.110Z,2.00
2022-11-02T21:56:16.800Z,2.53
2022-11-02T21:58:49.158Z,2.47
2022-11-02T22:01:37.792Z,2.17
2022-11-02T22:04:10.399Z,1.90
2022-11-02T22:06:41.518Z,2.43
2022-11-02T22:09:14.781Z,2.63
2022-11-02T22:11:45.854Z,1.83
2022-11-02T22:14:16.670Z,2.40
2022-11-02T22:16:53.394Z,2.50
2022-11-02T22:19:24.127Z,2.53
2022-11-02T22:21:54.867Z,2.43
2022-11-02T22:24:25.557Z,2.20
2022-11-02T22:26:56.329Z,2.23
2022-11-02T22:29:27.270Z,2.53
2022-11-02T22:32:00.633Z,2.03
2022-11-02T22:34:33.098Z,2.20
2022-11-02T22:37:16.118Z,2.40
2022-11-02T22:39:46.856Z,1.80
2022-11-02T22:42:17.565Z,2.13
2022-11-02T22:44:48.580Z,1.70
2022-11-02T22:47:22.361Z,2.97
2022-11-02T22:49:53.066Z,1.90
2022-11-02T22:52:24.065Z,2.80
2022-11-02T22:54:55.039Z,1.87
2022-11-02T22:57:26.651Z,1.70
2022-11-02T22:59:58.824Z,2.57
2022-11-02T23:02:32.234Z,2.10
2022-11-02T23:05:03.030Z,2.03
2022-11-02T23:07:35.083Z,2.10
2022-11-02T23:10:26.268Z,1.90
2022-11-02T23:12:54.776Z,1.97
2022-11-02T23:15:25.476Z,2.13
2022-11-02T23:17:59.228Z,2.63
2022-11-02T23:20:30.104Z,1.80
2022-11-02T23:23:14.659Z,1.80
2022-11-02T23:25:45.605Z,2.20
2022-11-02T23:28:28.940Z,1.83
2022-11-02T23:31:20.874Z,3.30
2022-11-02T23:33:54.236Z,1.90
2022-11-02T23:36:22.410Z,2.30
2022-11-02T23:39:05.815Z,2.40
2022-11-02T23:41:38.768Z,2.37
2022-11-02T23:44:15.584Z,1.83
2022-11-02T23:46:48.508Z,2.00
2022-11-02T23:49:23.373Z,2.20
2022-11-02T23:52:06.632Z,1.60
2022-11-02T23:54:49.947Z,2.60
2022-11-02T23:57:25.500Z,2.10
2022-11-02T23:59:56.212Z,2.07
